Time,TemperatureF,DewpointF,PressureIn,WindDirection,WindDirectionDegrees,WindSpeedMPH,WindSpeedGustMPH,Humidity,HourlyPrecipIn,Conditions,Clouds,dailyrainin,SoftwareType,DateUTC
2013-09-07 00:04:00,54.0,53.0,30.23,SSE,158,0.0,1.0,97,0.00,,,0.00,,2013-09-07 04:04:00,
2013-09-07 00:24:00,53.0,52.0,30.23,SSE,158,0.0,1.0,97,0.00,,,0.00,,2013-09-07 04:24:00,
2013-09-07 00:34:00,53.0,52.0,30.23,SSE,158,0.0,1.0,97,0.00,,,0.00,,2013-09-07 04:34:00,
2013-09-07 00:43:00,53.0,52.0,30.23,SSE,158,0.0,1.0,97,0.00,,,0.00,,2013-09-07 04:43:00,
2013-09-07 00:54:00,53.0,52.0,30.23,SSE,158,0.0,1.0,97,0.00,,,0.00,,2013-09-07 04:54:00,
2013-09-07 01:23:00,55.0,54.0,30.23,SSE,158,0.0,1.0,98,0.00,,,0.00,,2013-09-07 05:23:00,
2013-09-07 01:33:00,55.0,54.0,30.23,SSE,158,0.0,1.0,98,0.00,,,0.00,,2013-09-07 05:33:00,
2013-09-07 01:52:00,55.0,54.0,30.23,SSE,158,0.0,0.0,97,0.00,,,0.00,,2013-09-07 05:52:00,
2013-09-07 02:02:00,55.0,54.0,30.23,SSE,158,0.0,0.0,97,0.00,,,0.00,,2013-09-07 06:02:00,
2013-09-07 02:13:00,55.0,54.0,30.23,SSE,158,0.0,0.0,97,0.00,,,0.00,,2013-09-07 06:13:00,
2013-09-07 02:22:00,54.0,53.0,30.22,SSE,158,0.0,0.0,97,0.00,,,0.00,,2013-09-07 06:22:00,
2013-09-07 02:33:00,54.0,53.0,30.22,SSE,158,0.0,0.0,97,0.00,,,0.00,,2013-09-07 06:33:00,
2013-09-07 02:52:00,53.0,52.0,30.21,SSE,158,0.0,1.0,97,0.00,,,0.00,,2013-09-07 06:52:00,
2013-09-07 03:02:00,53.0,52.0,30.21,SSE,158,0.0,1.0,97,0.00,,,0.00,,2013-09-07 07:02:00,
2013-09-07 03:12:00,53.0,52.0,30.21,SSE,158,0.0,1.0,97,0.00,,,0.00,,2013-09-07 07:12:00,
2013-09-07 03:22:00,54.0,53.0,30.21,SSE,158,0.0,1.0,98,0.00,,,0.00,,2013-09-07 07:22:00,
2013-09-07 03:33:00,54.0,53.0,30.21,SSE,158,0.0,1.0,98,0.00,,,0.00,,2013-09-07 07:33:00,
2013-09-07 03:52:00,55.0,54.0,30.21,SSE,158,0.0,0.0,98,0.00,,,0.00,,2013-09-07 07:52:00,
2013-09-07 04:03:00,55.0,54.0,30.21,SSE,158,0.0,0.0,98,0.00,,,0.00,,2013-09-07 08:03:00,
2013-09-07 04:12:00,55.0,54.0,30.21,SSE,158,0.0,0.0,98,0.00,,,0.00,,2013-09-07 08:12:00,
2013-09-07 04:22:00,54.0,53.0,30.20,SSE,158,0.0,0.0,97,0.00,,,0.00,,2013-09-07 08:22:00,
2013-09-07 04:32:00,54.0,53.0,30.20,SSE,158,0.0,0.0,97,0.00,,,0.00,,2013-09-07 08:32:00,
2013-09-07 04:53:00,53.0,52.0,30.20,SSE,158,0.0,0.0,97,0.00,,,0.00,,2013-09-07 08:53:00,
2013-09-07 05:02:00,53.0,52.0,30.20,SSE,158,0.0,0.0,97,0.00,,,0.00,,2013-09-07 09:02:00,
2013-09-07 05:12:00,53.0,52.0,30.20,SSE,158,0.0,0.0,97,0.00,,,0.00,,2013-09-07 09:12:00,
2013-09-07 05:21:00,52.0,51.0,30.20,SSE,158,0.0,0.0,97,0.00,,,0.00,,2013-09-07 09:21:00,
2013-09-07 05:32:00,52.0,51.0,30.20,SSE,158,0.0,0.0,97,0.00,,,0.00,,2013-09-07 09:32:00,
2013-09-07 05:52:00,52.0,51.0,30.21,SSE,158,0.0,0.0,98,0.00,,,0.00,,2013-09-07 09:52:00,
2013-09-07 06:02:00,52.0,51.0,30.21,SSE,158,0.0,0.0,98,0.00,,,0.00,,2013-09-07 10:02:00,
2013-09-07 06:11:00,52.0,51.0,30.21,SSE,158,0.0,0.0,98,0.00,,,0.00,,2013-09-07 10:11:00,
2013-09-07 06:21:00,51.0,50.0,30.21,SSE,158,0.0,0.0,98,0.00,,,0.00,,2013-09-07 10:21:00,
2013-09-07 06:31:00,51.0,50.0,30.21,SSE,158,0.0,0.0,98,0.00,,,0.00,,2013-09-07 10:31:00,
2013-09-07 06:51:00,51.0,50.0,30.22,SSE,158,0.0,0.0,98,0.00,,,0.00,,2013-09-07 10:51:00,
2013-09-07 07:03:00,51.0,50.0,30.22,SSE,158,0.0,0.0,98,0.00,,,0.00,,2013-09-07 11:03:00,
2013-09-07 07:13:00,51.0,50.0,30.22,SSE,158,0.0,0.0,98,0.00,,,0.00,,2013-09-07 11:13:00,
2013-09-07 07:23:00,50.0,49.0,30.22,SSE,158,0.0,1.0,98,0.00,,,0.00,,2013-09-07 11:23:00,
2013-09-07 07:33:00,50.0,49.0,30.22,SSE,158,0.0,1.0,98,0.00,,,0.00,,2013-09-07 11:33:00,
2013-09-07 07:52:00,50.0,49.0,30.22,SSE,158,0.0,1.0,98,0.00,,,0.00,,2013-09-07 11:52:00,
2013-09-07 08:02:00,50.0,49.0,30.22,SSE,158,0.0,1.0,98,0.00,,,0.00,,2013-09-07 12:02:00,
2013-09-07 08:13:00,50.0,49.0,30.22,SSE,158,0.0,1.0,98,0.00,,,0.00,,2013-09-07 12:13:00,
2013-09-07 08:22:00,51.0,51.0,30.21,SSE,158,0.0,0.0,99,0.00,,,0.00,,2013-09-07 12:22:00,
2013-09-07 08:32:00,51.0,51.0,30.21,SSE,158,0.0,0.0,99,0.00,,,0.00,,2013-09-07 12:32:00,
2013-09-07 08:52:00,54.0,54.0,30.21,SSE,158,0.0,1.0,99,0.00,,,0.00,,2013-09-07 12:52:00,
2013-09-07 09:12:00,54.0,54.0,30.21,SSE,158,0.0,1.0,99,0.00,,,0.00,,2013-09-07 13:12:00,
2013-09-07 09:21:00,58.0,57.0,30.21,SE,135,1.0,2.0,97,0.00,,,0.00,,2013-09-07 13:21:00,
2013-09-07 09:52:00,62.0,58.0,30.21,ESE,113,2.0,3.0,86,0.00,,,0.00,,2013-09-07 13:52:00,
2013-09-07 10:02:00,62.0,58.0,30.21,ESE,113,2.0,3.0,86,0.00,,,0.00,,2013-09-07 14:02:00,
2013-09-07 10:11:00,62.0,58.0,30.21,ESE,113,2.0,3.0,86,0.00,,,0.00,,2013-09-07 14:11:00,
2013-09-07 10:22:00,63.0,57.0,30.19,SSE,158,3.0,6.0,82,0.00,,,0.00,,2013-09-07 14:22:00,
2013-09-07 10:32:00,63.0,57.0,30.19,SSE,158,3.0,6.0,82,0.00,,,0.00,,2013-09-07 14:32:00,
2013-09-07 10:52:00,65.0,59.0,30.20,East,90,0.0,5.0,80,0.00,,,0.00,,2013-09-07 14:52:00,
2013-09-07 11:02:00,65.0,59.0,30.20,East,90,0.0,5.0,80,0.00,,,0.00,,2013-09-07 15:02:00,
2013-09-07 11:23:00,68.0,60.0,30.20,WNW,293,0.0,3.0,75,0.00,,,0.00,,2013-09-07 15:23:00,
2013-09-07 11:34:00,68.0,60.0,30.20,WNW,293,0.0,3.0,75,0.00,,,0.00,,2013-09-07 15:34:00,
2013-09-07 11:54:00,69.0,62.0,30.19,North,0,1.0,5.0,78,0.00,,,0.00,,2013-09-07 15:54:00,
2013-09-07 12:04:00,69.0,62.0,30.19,North,0,1.0,5.0,78,0.00,,,0.00,,2013-09-07 16:04:00,
2013-09-07 12:13:00,69.0,62.0,30.19,North,0,1.0,5.0,78,0.00,,,0.00,,2013-09-07 16:13:00,
2013-09-07 12:24:00,69.0,62.0,30.19,North,0,1.0,5.0,78,0.00,,,0.00,,2013-09-07 16:24:00,
2013-09-07 12:53:00,71.0,61.0,30.17,North,0,1.0,5.0,70,0.00,,,0.00,,2013-09-07 16:53:00,
2013-09-07 13:05:00,71.0,61.0,30.17,North,0,1.0,5.0,70,0.00,,,0.00,,2013-09-07 17:05:00,
2013-09-07 13:24:00,73.0,61.0,30.16,West,270,1.0,5.0,65,0.00,,,0.00,,2013-09-07 17:24:00,
2013-09-07 13:34:00,73.0,61.0,30.16,West,270,1.0,5.0,65,0.00,,,0.00,,2013-09-07 17:34:00,
2013-09-07 13:52:00,74.0,58.0,30.15,North,0,2.0,5.0,57,0.00,,,0.00,,2013-09-07 17:52:00,
2013-09-07 14:01:00,74.0,58.0,30.15,North,0,2.0,5.0,57,0.00,,,0.00,,2013-09-07 18:01:00,
2013-09-07 14:13:00,74.0,58.0,30.15,North,0,2.0,5.0,57,0.00,,,0.00,,2013-09-07 18:13:00,
2013-09-07 14:22:00,76.0,57.0,30.14,West,270,1.0,3.0,51,0.00,,,0.00,,2013-09-07 18:22:00,
2013-09-07 14:32:00,76.0,57.0,30.14,West,270,1.0,3.0,51,0.00,,,0.00,,2013-09-07 18:32:00,
2013-09-07 14:52:00,76.0,59.0,30.14,WNW,293,1.0,3.0,56,0.00,,,0.00,,2013-09-07 18:52:00,
2013-09-07 15:02:00,76.0,59.0,30.14,WNW,293,1.0,3.0,56,0.00,,,0.00,,2013-09-07 19:02:00,
2013-09-07 15:11:00,76.0,59.0,30.14,WNW,293,1.0,3.0,56,0.00,,,0.00,,2013-09-07 19:11:00,
2013-09-07 15:22:00,77.0,59.0,30.12,ESE,113,1.0,5.0,54,0.00,,,0.00,,2013-09-07 19:22:00,
2013-09-07 15:32:00,77.0,59.0,30.12,ESE,113,1.0,5.0,54,0.00,,,0.00,,2013-09-07 19:32:00,
2013-09-07 15:52:00,77.0,59.0,30.12,WSW,248,1.0,3.0,53,0.00,,,0.00,,2013-09-07 19:52:00,
2013-09-07 16:02:00,77.0,59.0,30.12,WSW,248,1.0,3.0,53,0.00,,,0.00,,2013-09-07 20:02:00,
2013-09-07 16:22:00,77.0,58.0,30.10,SSE,158,1.0,6.0,52,0.00,,,0.00,,2013-09-07 20:22:00,
2013-09-07 16:32:00,77.0,58.0,30.10,SSE,158,1.0,6.0,52,0.00,,,0.00,,2013-09-07 20:32:00,
2013-09-07 16:53:00,76.0,60.0,30.10,WSW,248,2.0,3.0,57,0.00,,,0.00,,2013-09-07 20:53:00,
2013-09-07 17:02:00,76.0,60.0,30.10,WSW,248,2.0,3.0,57,0.00,,,0.00,,2013-09-07 21:02:00,
2013-09-07 17:22:00,77.0,61.0,30.08,West,270,2.0,3.0,57,0.00,,,0.00,,2013-09-07 21:22:00,
2013-09-07 17:34:00,77.0,61.0,30.08,West,270,2.0,3.0,57,0.00,,,0.00,,2013-09-07 21:34:00,
2013-09-07 17:54:00,75.0,62.0,30.08,West,270,0.0,1.0,64,0.00,,,0.00,,2013-09-07 21:54:00,
2013-09-07 18:04:00,75.0,62.0,30.08,West,270,0.0,1.0,64,0.00,,,0.00,,2013-09-07 22:04:00,
2013-09-07 18:24:00,75.0,64.0,30.07,West,270,0.0,1.0,68,0.00,,,0.00,,2013-09-07 22:24:00,
2013-09-07 18:33:00,75.0,64.0,30.07,West,270,0.0,1.0,68,0.00,,,0.00,,2013-09-07 22:33:00,
2013-09-07 18:53:00,71.0,62.0,30.08,SSW,203,0.0,1.0,73,0.00,,,0.00,,2013-09-07 22:53:00,
2013-09-07 19:03:00,71.0,62.0,30.08,SSW,203,0.0,1.0,73,0.00,,,0.00,,2013-09-07 23:03:00,
2013-09-07 21:11:00,60.0,57.0,30.09,SSW,203,0.0,1.0,90,0.00,,,0.00,,2013-09-08 01:11:00,
2013-09-07 21:42:00,58.0,55.0,30.09,SSW,203,0.0,0.0,91,0.00,,,0.00,,2013-09-08 01:42:00,